Details for Ryanair at EPMO




Go Back


Latest METAR
Local Time

EPMO 150500Z 26008KT CAVOK 17/15 Q1013
15/08/2018, 07:20:22

Description
Results
Ryanair Logo
Number of Pilots based at EPMO
0 Pilots Based here
Number of Ryanair Flights Departed from EPMO
1 Flights Departed
Number of Ryanair Flights Arrived at EPMO
1 Flights Arrived
Number of Ryanair Schedules Departing from EPMO
92 Schedules
Number of Ryanair Schedules Arriving at EPMO
92 Schedules
Number of Ryanair Schedules Departing from EPMO availible today
22 Schedules Today
Number of Ryanair Schedules Arriving at EPMO availible today
22 Schedules Today
Average Landing Rate at EPMO
-120 fpm
Ryanair Average Landing Rate at EPMO
-120 fpm
Total Fuel Purchased at EPMO by Ryanair
-1,399.33 kgs / -3,084.96 lbs

Pilots Based at EPMO


Pilot ID
Pilot Name
Pilot Rank
No. of Flights
No. of Flying Hours
There are no pilots assigned to this hub!   Will you be the first?
Content